sensor_id;sensor_type;location;lat;lon;timestamp;temperature;humidity
18741;DHT22;9499;52.472;13.448;2022-09-12T00:00:40;16.10;99.90
18741;DHT22;9499;52.472;13.448;2022-09-12T00:03:06;16.10;99.90
18741;DHT22;9499;52.472;13.448;2022-09-12T00:05:39;16.00;99.90
18741;DHT22;9499;52.472;13.448;2022-09-12T00:08:06;16.00;99.90
18741;DHT22;9499;52.472;13.448;2022-09-12T00:10:36;16.00;99.90
18741;DHT22;9499;52.472;13.448;2022-09-12T00:13:03;15.90;99.90
18741;DHT22;9499;52.472;13.448;2022-09-12T00:15:29;15.90;99.90
18741;DHT22;9499;52.472;13.448;2022-09-12T00:17:55;15.90;99.90
18741;DHT22;9499;52.472;13.448;2022-09-12T00:20:22;15.90;99.90
18741;DHT22;9499;52.472;13.448;2022-09-12T00:22:50;15.80;99.90
18741;DHT22;9499;52.472;13.448;2022-09-12T00:25:16;15.80;99.90
18741;DHT22;9499;52.472;13.448;2022-09-12T00:27:43;15.70;99.90
18741;DHT22;9499;52.472;13.448;2022-09-12T00:30:10;15.70;99.90
18741;DHT22;9499;52.472;13.448;2022-09-12T00:32:37;15.70;99.90
18741;DHT22;9499;52.472;13.448;2022-09-12T00:35:04;15.60;99.90
18741;DHT22;9499;52.472;13.448;2022-09-12T00:37:31;15.60;99.90
18741;DHT22;9499;52.472;13.448;2022-09-12T00:39:59;15.50;99.90
18741;DHT22;9499;52.472;13.448;2022-09-12T00:42:25;15.50;99.90
18741;DHT22;9499;52.472;13.448;2022-09-12T00:44:52;15.50;99.90
18741;DHT22;9499;52.472;13.448;2022-09-12T00:47:22;15.50;99.90
18741;DHT22;9499;52.472;13.448;2022-09-12T00:49:57;15.40;99.90
18741;DHT22;9499;52.472;13.448;2022-09-12T00:52:27;15.40;99.90
18741;DHT22;9499;52.472;13.448;2022-09-12T00:54:59;15.40;99.90
18741;DHT22;9499;52.472;13.448;2022-09-12T00:57:29;15.40;99.90
18741;DHT22;9499;52.472;13.448;2022-09-12T01:00:00;15.40;99.90
18741;DHT22;9499;52.472;13.448;2022-09-12T01:02:28;15.40;99.90
18741;DHT22;9499;52.472;13.448;2022-09-12T01:04:55;15.40;99.90
18741;DHT22;9499;52.472;13.448;2022-09-12T01:07:22;15.40;99.90
18741;DHT22;9499;52.472;13.448;2022-09-12T01:09:48;15.40;99.90
18741;DHT22;9499;52.472;13.448;2022-09-12T01:12:17;15.30;99.90
18741;DHT22;9499;52.472;13.448;2022-09-12T01:14:43;15.30;99.90
18741;DHT22;9499;52.472;13.448;2022-09-12T01:17:12;15.20;99.90
18741;DHT22;9499;52.472;13.448;2022-09-12T01:20:13;15.10;99.90
18741;DHT22;9499;52.472;13.448;2022-09-12T01:23:05;15.10;99.90
18741;DHT22;9499;52.472;13.448;2022-09-12T01:25:46;15.10;99.90
18741;DHT22;9499;52.472;13.448;2022-09-12T01:28:35;15.00;99.90
18741;DHT22;9499;52.472;13.448;2022-09-12T01:31:11;15.00;99.90
18741;DHT22;9499;52.472;13.448;2022-09-12T01:33:52;15.00;99.90
18741;DHT22;9499;52.472;13.448;2022-09-12T01:36:33;15.00;99.90
18741;DHT22;9499;52.472;13.448;2022-09-12T01:39:04;14.90;99.90
18741;DHT22;9499;52.472;13.448;2022-09-12T01:41:40;14.80;99.90
18741;DHT22;9499;52.472;13.448;2022-09-12T01:44:13;14.80;99.90
18741;DHT22;9499;52.472;13.448;2022-09-12T01:46:54;14.80;99.90
18741;DHT22;9499;52.472;13.448;2022-09-12T01:49:24;14.80;99.90
18741;DHT22;9499;52.472;13.448;2022-09-12T01:51:56;14.80;99.90
18741;DHT22;9499;52.472;13.448;2022-09-12T01:54:28;14.80;99.90
18741;DHT22;9499;52.472;13.448;2022-09-12T01:57:00;14.70;99.90
18741;DHT22;9499;52.472;13.448;2022-09-12T01:59:32;14.70;99.90
18741;DHT22;9499;52.472;13.448;2022-09-12T02:02:04;14.60;99.90
18741;DHT22;9499;52.472;13.448;2022-09-12T02:04:36;14.60;99.90
18741;DHT22;9499;52.472;13.448;2022-09-12T02:07:10;14.60;99.90
18741;DHT22;9499;52.472;13.448;2022-09-12T02:09:42;14.60;99.90
18741;DHT22;9499;52.472;13.448;2022-09-12T02:12:14;14.60;99.90
18741;DHT22;9499;52.472;13.448;2022-09-12T02:14:45;14.60;99.90
18741;DHT22;9499;52.472;13.448;2022-09-12T02:17:17;14.50;99.90
18741;DHT22;9499;52.472;13.448;2022-09-12T02:19:47;14.50;99.90
18741;DHT22;9499;52.472;13.448;2022-09-12T02:22:17;14.60;99.90
18741;DHT22;9499;52.472;13.448;2022-09-12T02:24:48;14.60;99.90
18741;DHT22;9499;52.472;13.448;2022-09-12T02:27:20;14.60;99.90
18741;DHT22;9499;52.472;13.448;2022-09-12T02:29:48;14.60;99.90
18741;DHT22;9499;52.472;13.448;2022-09-12T02:32:23;14.60;99.90
18741;DHT22;9499;52.472;13.448;2022-09-12T02:34:57;14.60;99.90
18741;DHT22;9499;52.472;13.448;2022-09-12T02:37:33;14.60;99.90
18741;DHT22;9499;52.472;13.448;2022-09-12T02:40:05;14.50;99.90
18741;DHT22;9499;52.472;13.448;2022-09-12T02:42:33;14.50;99.90
18741;DHT22;9499;52.472;13.448;2022-09-12T02:45:00;14.50;99.90
18741;DHT22;9499;52.472;13.448;2022-09-12T02:47:32;14.60;99.90
18741;DHT22;9499;52.472;13.448;2022-09-12T02:49:59;14.60;99.90
18741;DHT22;9499;52.472;13.448;2022-09-12T02:52:27;14.50;99.90
18741;DHT22;9499;52.472;13.448;2022-09-12T02:54:54;14.40;99.90
18741;DHT22;9499;52.472;13.448;2022-09-12T02:57:21;14.40;99.90
18741;DHT22;9499;52.472;13.448;2022-09-12T02:59:49;14.40;99.90
18741;DHT22;9499;52.472;13.448;2022-09-12T03:02:26;14.40;99.90
18741;DHT22;9499;52.472;13.448;2022-09-12T03:05:07;14.50;99.90
18741;DHT22;9499;52.472;13.448;2022-09-12T03:08:06;14.50;99.90
18741;DHT22;9499;52.472;13.448;2022-09-12T03:10:41;14.50;99.90
18741;DHT22;9499;52.472;13.448;2022-09-12T03:13:19;14.60;99.90
18741;DHT22;9499;52.472;13.448;2022-09-12T03:15:57;14.60;99.90
18741;DHT22;9499;52.472;13.448;2022-09-12T03:18:36;14.60;99.90
18741;DHT22;9499;52.472;13.448;2022-09-12T03:21:13;14.60;99.90
18741;DHT22;9499;52.472;13.448;2022-09-12T03:23:47;14.60;99.90
18741;DHT22;9499;52.472;13.448;2022-09-12T03:26:19;14.50;99.90
18741;DHT22;9499;52.472;13.448;2022-09-12T03:28:47;14.50;99.90
18741;DHT22;9499;52.472;13.448;2022-09-12T03:31:16;14.50;99.90
18741;DHT22;9499;52.472;13.448;2022-09-12T03:33:43;14.40;99.90
18741;DHT22;9499;52.472;13.448;2022-09-12T03:36:15;14.40;99.90
18741;DHT22;9499;52.472;13.448;2022-09-12T03:38:42;14.40;99.90
18741;DHT22;9499;52.472;13.448;2022-09-12T03:41:08;14.40;99.90
18741;DHT22;9499;52.472;13.448;2022-09-12T03:43:35;14.40;99.90
18741;DHT22;9499;52.472;13.448;2022-09-12T03:46:01;14.30;99.90
18741;DHT22;9499;52.472;13.448;2022-09-12T03:48:28;14.30;99.90
18741;DHT22;9499;52.472;13.448;2022-09-12T03:50:59;14.30;99.90
18741;DHT22;9499;52.472;13.448;2022-09-12T03:53:30;14.20;99.90
18741;DHT22;9499;52.472;13.448;2022-09-12T03:55:58;14.20;99.90
18741;DHT22;9499;52.472;13.448;2022-09-12T03:58:29;14.10;99.90
18741;DHT22;9499;52.472;13.448;2022-09-12T04:00:56;14.10;99.90
18741;DHT22;9499;52.472;13.448;2022-09-12T04:03:23;14.10;99.90
18741;DHT22;9499;52.472;13.448;2022-09-12T04:05:50;14.10;99.90
18741;DHT22;9499;52.472;13.448;2022-09-12T04:08:16;14.10;99.90
18741;DHT22;9499;52.472;13.448;2022-09-12T04:10:44;14.00;99.90
18741;DHT22;9499;52.472;13.448;2022-09-12T04:13:10;13.90;99.90
18741;DHT22;9499;52.472;13.448;2022-09-12T04:15:37;13.80;99.90
18741;DHT22;9499;52.472;13.448;2022-09-12T04:18:03;13.80;99.90
18741;DHT22;9499;52.472;13.448;2022-09-12T04:20:30;13.90;99.90
18741;DHT22;9499;52.472;13.448;2022-09-12T04:22:56;13.90;99.90
18741;DHT22;9499;52.472;13.448;2022-09-12T04:25:23;14.00;99.90
18741;DHT22;9499;52.472;13.448;2022-09-12T04:27:51;14.00;99.90
18741;DHT22;9499;52.472;13.448;2022-09-12T04:30:17;14.00;99.90
18741;DHT22;9499;52.472;13.448;2022-09-12T04:32:44;14.00;99.90
18741;DHT22;9499;52.472;13.448;2022-09-12T04:35:10;14.00;99.90
18741;DHT22;9499;52.472;13.448;2022-09-12T04:37:38;14.10;99.90
18741;DHT22;9499;52.472;13.448;2022-09-12T04:40:05;14.00;99.90
18741;DHT22;9499;52.472;13.448;2022-09-12T04:42:32;14.00;99.90
18741;DHT22;9499;52.472;13.448;2022-09-12T04:45:00;14.00;99.90
18741;DHT22;9499;52.472;13.448;2022-09-12T04:47:26;14.00;99.90
18741;DHT22;9499;52.472;13.448;2022-09-12T04:49:54;14.00;99.90
18741;DHT22;9499;52.472;13.448;2022-09-12T04:52:20;13.90;99.90
18741;DHT22;9499;52.472;13.448;2022-09-12T04:54:47;13.90;99.90
18741;DHT22;9499;52.472;13.448;2022-09-12T04:57:13;13.90;99.90
18741;DHT22;9499;52.472;13.448;2022-09-12T04:59:40;13.90;99.90
18741;DHT22;9499;52.472;13.448;2022-09-12T05:02:08;13.90;99.90
18741;DHT22;9499;52.472;13.448;2022-09-12T05:04:34;13.90;99.90
18741;DHT22;9499;52.472;13.448;2022-09-12T05:07:01;13.80;99.90
18741;DHT22;9499;52.472;13.448;2022-09-12T05:09:28;13.80;99.90
18741;DHT22;9499;52.472;13.448;2022-09-12T05:11:54;13.70;99.90
18741;DHT22;9499;52.472;13.448;2022-09-12T05:14:20;13.70;99.90
18741;DHT22;9499;52.472;13.448;2022-09-12T05:16:47;13.70;99.90
18741;DHT22;9499;52.472;13.448;2022-09-12T05:19:15;13.70;99.90
18741;DHT22;9499;52.472;13.448;2022-09-12T05:21:42;13.80;99.90
18741;DHT22;9499;52.472;13.448;2022-09-12T05:24:09;13.80;99.90
18741;DHT22;9499;52.472;13.448;2022-09-12T05:26:35;13.80;99.90
18741;DHT22;9499;52.472;13.448;2022-09-12T05:29:03;13.90;99.90
18741;DHT22;9499;52.472;13.448;2022-09-12T05:31:29;13.90;99.90
18741;DHT22;9499;52.472;13.448;2022-09-12T05:33:56;13.90;99.90
18741;DHT22;9499;52.472;13.448;2022-09-12T05:36:26;13.90;99.90
18741;DHT22;9499;52.472;13.448;2022-09-12T05:38:53;13.80;99.90
18741;DHT22;9499;52.472;13.448;2022-09-12T05:41:21;13.80;99.90
18741;DHT22;9499;52.472;13.448;2022-09-12T05:43:51;13.90;99.90
18741;DHT22;9499;52.472;13.448;2022-09-12T05:46:20;13.90;99.90
18741;DHT22;9499;52.472;13.448;2022-09-12T05:48:48;13.90;99.90
18741;DHT22;9499;52.472;13.448;2022-09-12T05:51:16;13.90;99.90
18741;DHT22;9499;52.472;13.448;2022-09-12T05:53:46;14.00;99.90
18741;DHT22;9499;52.472;13.448;2022-09-12T05:56:14;14.00;99.90
18741;DHT22;9499;52.472;13.448;2022-09-12T05:58:42;14.10;99.90
18741;DHT22;9499;52.472;13.448;2022-09-12T06:01:12;14.10;99.90
18741;DHT22;9499;52.472;13.448;2022-09-12T06:03:40;14.20;99.90
18741;DHT22;9499;52.472;13.448;2022-09-12T06:06:07;14.20;99.90
18741;DHT22;9499;52.472;13.448;2022-09-12T06:08:37;14.30;99.90
18741;DHT22;9499;52.472;13.448;2022-09-12T06:11:06;14.40;99.90
18741;DHT22;9499;52.472;13.448;2022-09-12T06:13:35;14.50;99.90
18741;DHT22;9499;52.472;13.448;2022-09-12T06:16:03;14.50;99.90
18741;DHT22;9499;52.472;13.448;2022-09-12T06:18:30;14.50;99.90
18741;DHT22;9499;52.472;13.448;2022-09-12T06:21:00;14.60;99.90
18741;DHT22;9499;52.472;13.448;2022-09-12T06:23:27;14.70;99.90
18741;DHT22;9499;52.472;13.448;2022-09-12T06:25:53;14.70;99.90
18741;DHT22;9499;52.472;13.448;2022-09-12T06:28:21;14.80;99.90
18741;DHT22;9499;52.472;13.448;2022-09-12T06:30:49;14.80;99.90
18741;DHT22;9499;52.472;13.448;2022-09-12T06:33:16;14.80;99.90
18741;DHT22;9499;52.472;13.448;2022-09-12T06:35:43;14.80;99.90
18741;DHT22;9499;52.472;13.448;2022-09-12T06:38:09;14.90;99.90
18741;DHT22;9499;52.472;13.448;2022-09-12T06:40:40;14.90;99.90
18741;DHT22;9499;52.472;13.448;2022-09-12T06:43:09;15.00;99.90
18741;DHT22;9499;52.472;13.448;2022-09-12T06:45:37;15.00;99.90
18741;DHT22;9499;52.472;13.448;2022-09-12T06:48:03;15.00;99.90
18741;DHT22;9499;52.472;13.448;2022-09-12T06:50:30;15.10;99.90
18741;DHT22;9499;52.472;13.448;2022-09-12T06:52:56;15.10;99.90
18741;DHT22;9499;52.472;13.448;2022-09-12T06:55:23;15.10;99.90
18741;DHT22;9499;52.472;13.448;2022-09-12T06:57:50;15.10;99.90
18741;DHT22;9499;52.472;13.448;2022-09-12T07:00:17;15.20;99.90
18741;DHT22;9499;52.472;13.448;2022-09-12T07:02:44;15.20;99.90
18741;DHT22;9499;52.472;13.448;2022-09-12T07:05:11;15.30;99.90
18741;DHT22;9499;52.472;13.448;2022-09-12T07:07:38;15.30;99.90
18741;DHT22;9499;52.472;13.448;2022-09-12T07:10:05;15.30;99.90
18741;DHT22;9499;52.472;13.448;2022-09-12T07:12:32;15.30;99.90
18741;DHT22;9499;52.472;13.448;2022-09-12T07:14:58;15.30;99.90
18741;DHT22;9499;52.472;13.448;2022-09-12T07:17:25;15.40;99.90
18741;DHT22;9499;52.472;13.448;2022-09-12T07:19:53;15.50;99.90
18741;DHT22;9499;52.472;13.448;2022-09-12T07:22:19;15.60;99.90
18741;DHT22;9499;52.472;13.448;2022-09-12T07:24:46;15.60;99.90
18741;DHT22;9499;52.472;13.448;2022-09-12T07:27:12;15.60;99.90
18741;DHT22;9499;52.472;13.448;2022-09-12T07:29:39;15.70;99.90
18741;DHT22;9499;52.472;13.448;2022-09-12T07:32:06;15.70;99.90
18741;DHT22;9499;52.472;13.448;2022-09-12T07:34:33;15.80;99.90
18741;DHT22;9499;52.472;13.448;2022-09-12T07:37:01;15.90;99.90
18741;DHT22;9499;52.472;13.448;2022-09-12T07:39:27;16.00;99.90
18741;DHT22;9499;52.472;13.448;2022-09-12T07:41:54;16.00;99.90
18741;DHT22;9499;52.472;13.448;2022-09-12T07:44:21;16.10;99.90
18741;DHT22;9499;52.472;13.448;2022-09-12T07:46:48;16.20;99.90
18741;DHT22;9499;52.472;13.448;2022-09-12T07:49:15;16.30;99.90
18741;DHT22;9499;52.472;13.448;2022-09-12T07:51:41;16.40;99.90
18741;DHT22;9499;52.472;13.448;2022-09-12T07:54:09;16.50;99.90
18741;DHT22;9499;52.472;13.448;2022-09-12T07:56:36;16.40;99.90
18741;DHT22;9499;52.472;13.448;2022-09-12T07:59:02;16.50;99.90
18741;DHT22;9499;52.472;13.448;2022-09-12T08:01:29;16.50;99.90
18741;DHT22;9499;52.472;13.448;2022-09-12T08:03:57;16.60;99.90
18741;DHT22;9499;52.472;13.448;2022-09-12T08:06:25;16.60;99.90
18741;DHT22;9499;52.472;13.448;2022-09-12T08:08:54;16.70;99.90
18741;DHT22;9499;52.472;13.448;2022-09-12T08:11:23;16.80;99.90
18741;DHT22;9499;52.472;13.448;2022-09-12T08:13:50;16.80;99.90
18741;DHT22;9499;52.472;13.448;2022-09-12T08:16:22;16.90;99.90
18741;DHT22;9499;52.472;13.448;2022-09-12T08:18:49;16.90;99.90
18741;DHT22;9499;52.472;13.448;2022-09-12T08:21:17;16.90;99.90
18741;DHT22;9499;52.472;13.448;2022-09-12T08:23:44;16.90;99.90
18741;DHT22;9499;52.472;13.448;2022-09-12T08:26:12;17.00;99.90
18741;DHT22;9499;52.472;13.448;2022-09-12T08:28:43;17.10;99.90
18741;DHT22;9499;52.472;13.448;2022-09-12T08:31:12;17.10;99.90
18741;DHT22;9499;52.472;13.448;2022-09-12T08:33:39;17.20;99.90
18741;DHT22;9499;52.472;13.448;2022-09-12T08:36:08;17.40;99.90
18741;DHT22;9499;52.472;13.448;2022-09-12T08:38:36;17.50;99.90
18741;DHT22;9499;52.472;13.448;2022-09-12T08:41:08;17.50;99.90
18741;DHT22;9499;52.472;13.448;2022-09-12T08:43:48;17.50;99.90
18741;DHT22;9499;52.472;13.448;2022-09-12T08:46:22;17.50;99.90
18741;DHT22;9499;52.472;13.448;2022-09-12T08:48:50;17.40;99.90
18741;DHT22;9499;52.472;13.448;2022-09-12T08:51:18;17.50;99.90
18741;DHT22;9499;52.472;13.448;2022-09-12T08:53:46;17.50;99.90
18741;DHT22;9499;52.472;13.448;2022-09-12T08:56:14;17.60;99.90
18741;DHT22;9499;52.472;13.448;2022-09-12T08:58:44;17.60;99.90
18741;DHT22;9499;52.472;13.448;2022-09-12T09:01:15;17.60;99.90
18741;DHT22;9499;52.472;13.448;2022-09-12T09:04:14;17.70;99.90
18741;DHT22;9499;52.472;13.448;2022-09-12T09:06:52;17.80;99.90
18741;DHT22;9499;52.472;13.448;2022-09-12T09:09:28;17.90;99.90
18741;DHT22;9499;52.472;13.448;2022-09-12T09:12:06;18.00;99.90
18741;DHT22;9499;52.472;13.448;2022-09-12T09:14:54;18.00;99.90
18741;DHT22;9499;52.472;13.448;2022-09-12T09:17:30;18.00;99.90
18741;DHT22;9499;52.472;13.448;2022-09-12T09:20:02;18.00;99.90
18741;DHT22;9499;52.472;13.448;2022-09-12T09:22:37;18.00;99.90
18741;DHT22;9499;52.472;13.448;2022-09-12T09:25:12;18.10;99.90
18741;DHT22;9499;52.472;13.448;2022-09-12T09:27:44;18.00;99.90
18741;DHT22;9499;52.472;13.448;2022-09-12T09:30:15;18.00;99.90
18741;DHT22;9499;52.472;13.448;2022-09-12T09:32:45;18.10;99.90
18741;DHT22;9499;52.472;13.448;2022-09-12T09:35:17;18.20;99.90
18741;DHT22;9499;52.472;13.448;2022-09-12T09:37:53;18.20;99.90
18741;DHT22;9499;52.472;13.448;2022-09-12T09:40:24;18.20;99.90
18741;DHT22;9499;52.472;13.448;2022-09-12T09:42:57;18.30;99.90
18741;DHT22;9499;52.472;13.448;2022-09-12T09:45:28;18.40;99.90
18741;DHT22;9499;52.472;13.448;2022-09-12T09:47:59;18.40;99.90
18741;DHT22;9499;52.472;13.448;2022-09-12T09:50:28;18.40;99.90
18741;DHT22;9499;52.472;13.448;2022-09-12T09:52:55;18.50;99.90
18741;DHT22;9499;52.472;13.448;2022-09-12T09:55:28;19.00;99.90
18741;DHT22;9499;52.472;13.448;2022-09-12T09:57:55;19.60;99.90
18741;DHT22;9499;52.472;13.448;2022-09-12T10:00:29;20.00;99.90
18741;DHT22;9499;52.472;13.448;2022-09-12T10:03:00;20.60;99.90
18741;DHT22;9499;52.472;13.448;2022-09-12T10:05:29;21.00;99.90
18741;DHT22;9499;52.472;13.448;2022-09-12T10:07:56;21.20;99.90
18741;DHT22;9499;52.472;13.448;2022-09-12T10:10:23;21.50;99.90
18741;DHT22;9499;52.472;13.448;2022-09-12T10:12:50;21.40;99.90
18741;DHT22;9499;52.472;13.448;2022-09-12T10:15:18;21.50;99.90
18741;DHT22;9499;52.472;13.448;2022-09-12T10:17:48;21.60;99.90
18741;DHT22;9499;52.472;13.448;2022-09-12T10:20:29;21.60;99.90
18741;DHT22;9499;52.472;13.448;2022-09-12T10:22:57;21.60;99.90
18741;DHT22;9499;52.472;13.448;2022-09-12T10:25:25;21.70;99.90
18741;DHT22;9499;52.472;13.448;2022-09-12T10:27:53;22.10;99.90
18741;DHT22;9499;52.472;13.448;2022-09-12T10:30:24;22.40;99.90
18741;DHT22;9499;52.472;13.448;2022-09-12T10:33:07;22.50;99.90
18741;DHT22;9499;52.472;13.448;2022-09-12T10:35:44;22.70;99.90
18741;DHT22;9499;52.472;13.448;2022-09-12T10:38:19;22.90;99.90
18741;DHT22;9499;52.472;13.448;2022-09-12T10:40:55;23.00;99.90
18741;DHT22;9499;52.472;13.448;2022-09-12T10:43:26;23.20;99.90
18741;DHT22;9499;52.472;13.448;2022-09-12T10:45:56;23.30;99.90
18741;DHT22;9499;52.472;13.448;2022-09-12T10:48:29;23.40;99.90
18741;DHT22;9499;52.472;13.448;2022-09-12T10:50:57;23.60;99.90
18741;DHT22;9499;52.472;13.448;2022-09-12T10:53:25;23.70;99.90
18741;DHT22;9499;52.472;13.448;2022-09-12T10:56:02;23.90;99.90
18741;DHT22;9499;52.472;13.448;2022-09-12T10:58:41;24.00;99.90
18741;DHT22;9499;52.472;13.448;2022-09-12T11:01:13;24.20;99.90
18741;DHT22;9499;52.472;13.448;2022-09-12T11:03:58;24.20;99.90
18741;DHT22;9499;52.472;13.448;2022-09-12T11:06:34;24.00;99.90
18741;DHT22;9499;52.472;13.448;2022-09-12T11:09:09;24.20;99.90
18741;DHT22;9499;52.472;13.448;2022-09-12T11:11:47;24.00;99.90
18741;DHT22;9499;52.472;13.448;2022-09-12T11:14:30;24.00;99.90
18741;DHT22;9499;52.472;13.448;2022-09-12T11:17:04;24.30;99.90
18741;DHT22;9499;52.472;13.448;2022-09-12T11:19:55;24.30;99.90
18741;DHT22;9499;52.472;13.448;2022-09-12T11:22:35;24.20;99.90
18741;DHT22;9499;52.472;13.448;2022-09-12T11:25:22;24.20;99.90
18741;DHT22;9499;52.472;13.448;2022-09-12T11:28:06;24.10;99.90
18741;DHT22;9499;52.472;13.448;2022-09-12T11:30:53;23.70;99.90
18741;DHT22;9499;52.472;13.448;2022-09-12T11:33:31;23.10;99.90
18741;DHT22;9499;52.472;13.448;2022-09-12T11:36:14;22.70;99.90
18741;DHT22;9499;52.472;13.448;2022-09-12T11:38:51;22.30;99.90
18741;DHT22;9499;52.472;13.448;2022-09-12T11:41:24;22.00;99.90
18741;DHT22;9499;52.472;13.448;2022-09-12T11:43:56;21.70;99.90
18741;DHT22;9499;52.472;13.448;2022-09-12T11:46:31;21.70;99.90
18741;DHT22;9499;52.472;13.448;2022-09-12T11:49:02;21.70;99.90
18741;DHT22;9499;52.472;13.448;2022-09-12T11:51:34;21.60;99.90
18741;DHT22;9499;52.472;13.448;2022-09-12T11:54:09;21.50;99.90
18741;DHT22;9499;52.472;13.448;2022-09-12T11:56:41;21.50;99.90
18741;DHT22;9499;52.472;13.448;2022-09-12T11:59:12;21.60;99.90
18741;DHT22;9499;52.472;13.448;2022-09-12T12:01:42;21.70;99.90
18741;DHT22;9499;52.472;13.448;2022-09-12T12:04:11;21.70;99.90
18741;DHT22;9499;52.472;13.448;2022-09-12T12:06:48;21.70;99.90
18741;DHT22;9499;52.472;13.448;2022-09-12T12:09:16;21.70;99.90
18741;DHT22;9499;52.472;13.448;2022-09-12T12:11:47;21.60;99.90
18741;DHT22;9499;52.472;13.448;2022-09-12T12:14:16;21.50;99.90
18741;DHT22;9499;52.472;13.448;2022-09-12T12:16:44;21.50;99.90
18741;DHT22;9499;52.472;13.448;2022-09-12T12:19:30;21.50;99.90
18741;DHT22;9499;52.472;13.448;2022-09-12T12:22:06;21.50;99.90
18741;DHT22;9499;52.472;13.448;2022-09-12T12:24:33;21.60;99.90
18741;DHT22;9499;52.472;13.448;2022-09-12T12:27:00;21.50;99.90
18741;DHT22;9499;52.472;13.448;2022-09-12T12:29:41;21.40;99.90
18741;DHT22;9499;52.472;13.448;2022-09-12T12:32:21;21.40;99.90
18741;DHT22;9499;52.472;13.448;2022-09-12T12:34:48;21.40;99.90
18741;DHT22;9499;52.472;13.448;2022-09-12T12:37:49;21.30;99.90
18741;DHT22;9499;52.472;13.448;2022-09-12T12:40:26;21.30;99.90
18741;DHT22;9499;52.472;13.448;2022-09-12T12:42:58;21.50;99.90
18741;DHT22;9499;52.472;13.448;2022-09-12T12:48:50;22.00;99.90
18741;DHT22;9499;52.472;13.448;2022-09-12T12:51:46;22.40;99.90
18741;DHT22;9499;52.472;13.448;2022-09-12T12:54:51;22.60;99.90
18741;DHT22;9499;52.472;13.448;2022-09-12T12:57:36;22.90;99.90
18741;DHT22;9499;52.472;13.448;2022-09-12T13:00:23;23.10;99.90
18741;DHT22;9499;52.472;13.448;2022-09-12T13:02:55;23.20;99.90
18741;DHT22;9499;52.472;13.448;2022-09-12T13:05:24;23.30;99.90
18741;DHT22;9499;52.472;13.448;2022-09-12T13:07:54;23.30;99.90
18741;DHT22;9499;52.472;13.448;2022-09-12T13:10:25;23.40;99.90
18741;DHT22;9499;52.472;13.448;2022-09-12T13:12:53;23.50;99.90
18741;DHT22;9499;52.472;13.448;2022-09-12T13:15:47;23.60;99.90
18741;DHT22;9499;52.472;13.448;2022-09-12T13:18:19;23.50;99.90
18741;DHT22;9499;52.472;13.448;2022-09-12T13:20:51;23.60;99.90
18741;DHT22;9499;52.472;13.448;2022-09-12T13:23:23;23.60;99.90
18741;DHT22;9499;52.472;13.448;2022-09-12T13:25:56;23.50;99.90
18741;DHT22;9499;52.472;13.448;2022-09-12T13:28:24;23.50;99.90
18741;DHT22;9499;52.472;13.448;2022-09-12T13:30:58;23.20;99.90
18741;DHT22;9499;52.472;13.448;2022-09-12T13:33:33;23.00;99.90
18741;DHT22;9499;52.472;13.448;2022-09-12T13:36:25;22.90;99.90
18741;DHT22;9499;52.472;13.448;2022-09-12T13:39:04;22.80;99.90
18741;DHT22;9499;52.472;13.448;2022-09-12T13:41:47;22.50;99.90
18741;DHT22;9499;52.472;13.448;2022-09-12T13:44:19;22.60;99.90
18741;DHT22;9499;52.472;13.448;2022-09-12T13:46:48;22.50;99.90
18741;DHT22;9499;52.472;13.448;2022-09-12T13:49:20;22.50;99.90
18741;DHT22;9499;52.472;13.448;2022-09-12T13:51:57;22.60;99.90
18741;DHT22;9499;52.472;13.448;2022-09-12T13:54:24;22.60;99.90
18741;DHT22;9499;52.472;13.448;2022-09-12T13:56:52;22.70;99.90
18741;DHT22;9499;52.472;13.448;2022-09-12T13:59:19;22.70;99.90
18741;DHT22;9499;52.472;13.448;2022-09-12T14:01:46;22.60;99.90
18741;DHT22;9499;52.472;13.448;2022-09-12T14:04:15;22.40;99.90
18741;DHT22;9499;52.472;13.448;2022-09-12T14:07:02;22.40;99.90
18741;DHT22;9499;52.472;13.448;2022-09-12T14:09:38;22.40;99.90
18741;DHT22;9499;52.472;13.448;2022-09-12T14:12:12;22.50;99.90
18741;DHT22;9499;52.472;13.448;2022-09-12T14:14:45;22.40;99.90
18741;DHT22;9499;52.472;13.448;2022-09-12T14:17:16;22.50;99.90
18741;DHT22;9499;52.472;13.448;2022-09-12T14:19:45;22.60;99.90
18741;DHT22;9499;52.472;13.448;2022-09-12T14:22:12;22.50;99.90
18741;DHT22;9499;52.472;13.448;2022-09-12T14:24:43;22.30;99.90
18741;DHT22;9499;52.472;13.448;2022-09-12T14:27:13;22.30;99.90
18741;DHT22;9499;52.472;13.448;2022-09-12T14:29:41;22.30;99.90
18741;DHT22;9499;52.472;13.448;2022-09-12T14:32:18;22.30;99.90
18741;DHT22;9499;52.472;13.448;2022-09-12T14:35:04;22.10;99.90
18741;DHT22;9499;52.472;13.448;2022-09-12T14:37:31;22.10;99.90
18741;DHT22;9499;52.472;13.448;2022-09-12T14:39:58;22.10;99.90
18741;DHT22;9499;52.472;13.448;2022-09-12T14:42:29;22.10;99.90
18741;DHT22;9499;52.472;13.448;2022-09-12T14:44:59;22.10;99.90
18741;DHT22;9499;52.472;13.448;2022-09-12T14:47:30;21.90;99.90
18741;DHT22;9499;52.472;13.448;2022-09-12T14:50:00;21.90;99.90
18741;DHT22;9499;52.472;13.448;2022-09-12T14:52:29;21.90;99.90
18741;DHT22;9499;52.472;13.448;2022-09-12T14:54:59;21.90;99.90
18741;DHT22;9499;52.472;13.448;2022-09-12T14:57:36;21.90;99.90
18741;DHT22;9499;52.472;13.448;2022-09-12T15:00:09;21.90;99.90
18741;DHT22;9499;52.472;13.448;2022-09-12T15:02:39;21.80;99.90
18741;DHT22;9499;52.472;13.448;2022-09-12T15:05:24;21.70;99.90
18741;DHT22;9499;52.472;13.448;2022-09-12T15:07:53;21.50;99.90
18741;DHT22;9499;52.472;13.448;2022-09-12T15:10:24;21.40;99.90
18741;DHT22;9499;52.472;13.448;2022-09-12T15:13:13;21.50;99.90
18741;DHT22;9499;52.472;13.448;2022-09-12T15:15:41;21.50;99.90
18741;DHT22;9499;52.472;13.448;2022-09-12T15:18:08;21.30;99.90
18741;DHT22;9499;52.472;13.448;2022-09-12T15:20:36;21.20;99.90
18741;DHT22;9499;52.472;13.448;2022-09-12T15:23:04;21.10;99.90
18741;DHT22;9499;52.472;13.448;2022-09-12T15:25:32;21.10;99.90
18741;DHT22;9499;52.472;13.448;2022-09-12T15:27:59;21.10;99.90
18741;DHT22;9499;52.472;13.448;2022-09-12T15:30:27;21.20;99.90
18741;DHT22;9499;52.472;13.448;2022-09-12T15:32:54;21.20;99.90
18741;DHT22;9499;52.472;13.448;2022-09-12T15:35:22;21.10;99.90
18741;DHT22;9499;52.472;13.448;2022-09-12T15:37:49;21.20;99.90
18741;DHT22;9499;52.472;13.448;2022-09-12T15:40:16;21.20;99.90
18741;DHT22;9499;52.472;13.448;2022-09-12T15:42:43;21.20;99.90
18741;DHT22;9499;52.472;13.448;2022-09-12T15:45:14;21.20;99.90
18741;DHT22;9499;52.472;13.448;2022-09-12T15:47:44;21.20;99.90
18741;DHT22;9499;52.472;13.448;2022-09-12T15:50:11;21.20;99.90
18741;DHT22;9499;52.472;13.448;2022-09-12T15:52:38;21.20;99.90
18741;DHT22;9499;52.472;13.448;2022-09-12T15:55:09;21.10;99.90
18741;DHT22;9499;52.472;13.448;2022-09-12T15:57:37;21.10;99.90